Schieren, Luxembourg
Current Conditions -  °F | °C
As of 10:20 PM on Sunday 23 Nov 2014 (Local Time) from ELLX Reporting Station
NA  
Wind Chill: 48°   Ceiling: NA
Heat Index: 48°   Visibility: 6mi
Dew Point: 46°   Wind: 3mph
Humidity: 93%   Direction: NA
Pressure: 30.03"   Gusts: NA
Location:  49.83°N, 6.1°E
Report Text: ELLX 232120Z AUTO VRB03KT 9999 NDV 09/08 Q1017
Loading
Personal Weather Stations






























Interactive Weather Map New forecast layout! Learn more

10-Day Weather Forecast

Advertisements
Track Severe Weather on mobile